SBBR/BSB METAR and TAF weather

Enter ICAO airport designator
Station Type Date Time Source
SBBR METAR 2021/03/09 09:00 UTC NOAA

SBBR 090900Z 13002KT 9999 SCT006 BKN100 19/18 Q1017


Station Type Date Time Source
SBBR Decoded METAR 2021/03/09 09:00 UTC NOAA

Brasilia Aeroporto , Brazil (SBBR) 15-52S 047-56W 1061M
Mar 09, 2021 - 04:00 AM EST / 2021.03.09 0900 UTC
Wind: from the SE (130 degrees) at 2 MPH (2 KT):0
Visibility: greater than 7 mile(s):0
Sky conditions: mostly cloudy
Temperature: 66 F (19 C)
Dew Point: 64 F (18 C)
Relative Humidity: 93%
Pressure (altimeter): 30.03 in. Hg (1017 hPa)
ob: SBBR 090900Z 13002KT 9999 SCT006 BKN100 19/18 Q1017
cycle: 9

Station Type Date Time Source
SBBR TAF 2021/03/09 06:43 UTC NOAA

TAF SBBR 090115Z 0906/1006 00000KT 9999 BKN005 TN19/0908Z TX26/0915Z
BECMG 0910/0912 FEW012 BKN020
BECMG 0912/0914 28006KT BKN030
BECMG 0914/0916 26009KT 4000 TSRA BKN030 FEW040CB
BECMG 0919/0921 21003KT 9999 NSW SCT020 FEW035TCU PROB30 0921/0923 VCTS BKN015 FEW025CB
BECMG 0923/1001 19006KT FEW040
BECMG 1002/1004 FEW008
RMK PGE

Example: see airport list